sensor_id;sensor_type;location;lat;lon;timestamp;P1;durP1;ratioP1;P2;durP2;ratioP2
51943;SDS011;37969;53.132;6.370;2023-06-10T00:00:49;12.32;;;6.15;;
51943;SDS011;37969;53.132;6.370;2023-06-10T00:03:16;12.23;;;6.50;;
51943;SDS011;37969;53.132;6.370;2023-06-10T00:05:43;9.20;;;5.70;;
51943;SDS011;37969;53.132;6.370;2023-06-10T00:08:09;8.88;;;5.60;;
51943;SDS011;37969;53.132;6.370;2023-06-10T00:10:36;12.43;;;6.40;;
51943;SDS011;37969;53.132;6.370;2023-06-10T00:13:03;12.57;;;5.63;;
51943;SDS011;37969;53.132;6.370;2023-06-10T00:15:30;10.13;;;6.22;;
51943;SDS011;37969;53.132;6.370;2023-06-10T00:17:56;12.00;;;6.80;;
51943;SDS011;37969;53.132;6.370;2023-06-10T00:20:22;12.55;;;6.03;;
51943;SDS011;37969;53.132;6.370;2023-06-10T00:22:50;9.70;;;5.82;;
51943;SDS011;37969;53.132;6.370;2023-06-10T00:25:16;10.48;;;6.53;;
51943;SDS011;37969;53.132;6.370;2023-06-10T00:27:42;9.98;;;5.63;;
51943;SDS011;37969;53.132;6.370;2023-06-10T00:30:09;11.25;;;6.13;;
51943;SDS011;37969;53.132;6.370;2023-06-10T00:32:35;13.05;;;5.88;;
51943;SDS011;37969;53.132;6.370;2023-06-10T00:35:02;9.27;;;5.85;;
51943;SDS011;37969;53.132;6.370;2023-06-10T00:37:28;12.88;;;6.05;;
51943;SDS011;37969;53.132;6.370;2023-06-10T00:39:55;11.48;;;6.57;;
51943;SDS011;37969;53.132;6.370;2023-06-10T00:42:21;16.17;;;6.40;;
51943;SDS011;37969;53.132;6.370;2023-06-10T00:44:50;7.50;;;5.88;;
51943;SDS011;37969;53.132;6.370;2023-06-10T00:47:16;11.02;;;6.97;;
51943;SDS011;37969;53.132;6.370;2023-06-10T00:49:42;11.80;;;6.45;;
51943;SDS011;37969;53.132;6.370;2023-06-10T00:52:09;12.15;;;6.60;;
51943;SDS011;37969;53.132;6.370;2023-06-10T00:54:36;12.63;;;7.00;;
51943;SDS011;37969;53.132;6.370;2023-06-10T00:57:04;8.15;;;6.03;;
51943;SDS011;37969;53.132;6.370;2023-06-10T00:59:30;11.60;;;6.22;;
51943;SDS011;37969;53.132;6.370;2023-06-10T01:01:57;11.88;;;6.40;;
51943;SDS011;37969;53.132;6.370;2023-06-10T01:04:23;14.60;;;6.40;;
51943;SDS011;37969;53.132;6.370;2023-06-10T01:06:54;10.23;;;6.88;;
51943;SDS011;37969;53.132;6.370;2023-06-10T01:09:33;14.00;;;6.90;;
51943;SDS011;37969;53.132;6.370;2023-06-10T01:12:05;9.80;;;7.05;;
51943;SDS011;37969;53.132;6.370;2023-06-10T01:14:35;9.98;;;6.18;;
51943;SDS011;37969;53.132;6.370;2023-06-10T01:17:02;12.70;;;7.22;;
51943;SDS011;37969;53.132;6.370;2023-06-10T01:19:28;14.50;;;7.55;;
51943;SDS011;37969;53.132;6.370;2023-06-10T01:21:56;13.02;;;7.15;;
51943;SDS011;37969;53.132;6.370;2023-06-10T01:24:26;16.10;;;7.40;;
51943;SDS011;37969;53.132;6.370;2023-06-10T01:26:52;11.25;;;7.10;;
51943;SDS011;37969;53.132;6.370;2023-06-10T01:29:22;9.35;;;7.07;;
51943;SDS011;37969;53.132;6.370;2023-06-10T01:31:54;10.60;;;7.45;;
51943;SDS011;37969;53.132;6.370;2023-06-10T01:34:23;12.35;;;6.75;;
51943;SDS011;37969;53.132;6.370;2023-06-10T01:36:49;11.77;;;7.28;;
51943;SDS011;37969;53.132;6.370;2023-06-10T01:39:17;10.65;;;6.45;;
51943;SDS011;37969;53.132;6.370;2023-06-10T01:41:43;18.05;;;7.75;;
51943;SDS011;37969;53.132;6.370;2023-06-10T01:44:10;14.70;;;7.97;;
51943;SDS011;37969;53.132;6.370;2023-06-10T01:46:36;12.80;;;7.00;;
51943;SDS011;37969;53.132;6.370;2023-06-10T01:49:02;13.20;;;7.63;;
51943;SDS011;37969;53.132;6.370;2023-06-10T01:51:28;15.43;;;7.72;;
51943;SDS011;37969;53.132;6.370;2023-06-10T01:53:56;14.18;;;8.10;;
51943;SDS011;37969;53.132;6.370;2023-06-10T01:56:22;9.27;;;7.93;;
51943;SDS011;37969;53.132;6.370;2023-06-10T01:58:49;12.80;;;8.15;;
51943;SDS011;37969;53.132;6.370;2023-06-10T02:01:15;18.70;;;9.23;;
51943;SDS011;37969;53.132;6.370;2023-06-10T02:03:41;13.15;;;7.72;;
51943;SDS011;37969;53.132;6.370;2023-06-10T02:06:07;13.38;;;8.68;;
51943;SDS011;37969;53.132;6.370;2023-06-10T02:08:33;13.05;;;8.95;;
51943;SDS011;37969;53.132;6.370;2023-06-10T02:10:59;14.13;;;8.75;;
51943;SDS011;37969;53.132;6.370;2023-06-10T02:13:25;13.63;;;9.50;;
51943;SDS011;37969;53.132;6.370;2023-06-10T02:15:52;15.95;;;9.25;;
51943;SDS011;37969;53.132;6.370;2023-06-10T02:18:19;16.60;;;9.05;;
51943;SDS011;37969;53.132;6.370;2023-06-10T02:20:46;13.07;;;9.88;;
51943;SDS011;37969;53.132;6.370;2023-06-10T02:23:12;17.17;;;10.15;;
51943;SDS011;37969;53.132;6.370;2023-06-10T02:25:38;18.33;;;10.43;;
51943;SDS011;37969;53.132;6.370;2023-06-10T02:28:05;13.13;;;9.68;;
51943;SDS011;37969;53.132;6.370;2023-06-10T02:30:31;17.42;;;10.45;;
51943;SDS011;37969;53.132;6.370;2023-06-10T02:32:57;17.83;;;10.35;;
51943;SDS011;37969;53.132;6.370;2023-06-10T02:35:24;13.00;;;8.98;;
51943;SDS011;37969;53.132;6.370;2023-06-10T02:37:50;13.02;;;8.95;;
51943;SDS011;37969;53.132;6.370;2023-06-10T02:40:16;13.98;;;9.05;;
51943;SDS011;37969;53.132;6.370;2023-06-10T02:42:42;13.32;;;8.18;;
51943;SDS011;37969;53.132;6.370;2023-06-10T02:45:09;12.38;;;8.05;;
51943;SDS011;37969;53.132;6.370;2023-06-10T02:47:37;12.95;;;7.90;;
51943;SDS011;37969;53.132;6.370;2023-06-10T02:52:31;16.35;;;8.85;;
51943;SDS011;37969;53.132;6.370;2023-06-10T02:54:57;11.77;;;7.82;;
51943;SDS011;37969;53.132;6.370;2023-06-10T02:57:23;12.98;;;7.97;;
51943;SDS011;37969;53.132;6.370;2023-06-10T02:59:49;14.00;;;7.90;;
51943;SDS011;37969;53.132;6.370;2023-06-10T03:02:16;10.88;;;7.30;;
51943;SDS011;37969;53.132;6.370;2023-06-10T03:04:42;12.43;;;7.35;;
51943;SDS011;37969;53.132;6.370;2023-06-10T03:07:10;13.13;;;7.10;;
51943;SDS011;37969;53.132;6.370;2023-06-10T03:09:36;17.17;;;6.90;;
51943;SDS011;37969;53.132;6.370;2023-06-10T03:12:02;11.80;;;7.07;;
51943;SDS011;37969;53.132;6.370;2023-06-10T03:14:29;12.15;;;6.93;;
51943;SDS011;37969;53.132;6.370;2023-06-10T03:16:55;9.23;;;6.53;;
51943;SDS011;37969;53.132;6.370;2023-06-10T03:19:21;12.32;;;7.45;;
51943;SDS011;37969;53.132;6.370;2023-06-10T03:21:49;14.95;;;6.85;;
51943;SDS011;37969;53.132;6.370;2023-06-10T03:24:16;14.32;;;6.97;;
51943;SDS011;37969;53.132;6.370;2023-06-10T03:26:42;12.85;;;6.93;;
51943;SDS011;37969;53.132;6.370;2023-06-10T03:29:08;15.60;;;7.43;;
51943;SDS011;37969;53.132;6.370;2023-06-10T03:31:34;11.65;;;6.80;;
51943;SDS011;37969;53.132;6.370;2023-06-10T03:34:03;10.00;;;6.47;;
51943;SDS011;37969;53.132;6.370;2023-06-10T03:36:30;10.75;;;6.25;;
51943;SDS011;37969;53.132;6.370;2023-06-10T03:38:56;14.57;;;6.82;;
51943;SDS011;37969;53.132;6.370;2023-06-10T03:41:22;10.80;;;6.45;;
51943;SDS011;37969;53.132;6.370;2023-06-10T03:43:48;15.13;;;6.65;;
51943;SDS011;37969;53.132;6.370;2023-06-10T03:46:14;12.60;;;7.03;;
51943;SDS011;37969;53.132;6.370;2023-06-10T03:48:42;12.23;;;6.85;;
51943;SDS011;37969;53.132;6.370;2023-06-10T03:51:08;15.63;;;6.82;;
51943;SDS011;37969;53.132;6.370;2023-06-10T03:53:35;17.40;;;7.28;;
51943;SDS011;37969;53.132;6.370;2023-06-10T03:56:01;15.77;;;7.40;;
51943;SDS011;37969;53.132;6.370;2023-06-10T03:58:27;13.65;;;7.65;;
51943;SDS011;37969;53.132;6.370;2023-06-10T04:00:53;12.57;;;7.63;;
51943;SDS011;37969;53.132;6.370;2023-06-10T04:03:20;14.85;;;8.80;;
51943;SDS011;37969;53.132;6.370;2023-06-10T04:05:46;15.48;;;8.32;;
51943;SDS011;37969;53.132;6.370;2023-06-10T04:08:12;16.67;;;7.70;;
51943;SDS011;37969;53.132;6.370;2023-06-10T04:10:38;15.10;;;8.60;;
51943;SDS011;37969;53.132;6.370;2023-06-10T04:13:04;13.13;;;8.25;;
51943;SDS011;37969;53.132;6.370;2023-06-10T04:15:31;14.02;;;9.10;;
51943;SDS011;37969;53.132;6.370;2023-06-10T04:17:58;21.13;;;9.40;;
51943;SDS011;37969;53.132;6.370;2023-06-10T04:20:26;18.67;;;10.23;;
51943;SDS011;37969;53.132;6.370;2023-06-10T04:22:52;16.65;;;9.05;;
51943;SDS011;37969;53.132;6.370;2023-06-10T04:25:18;19.13;;;9.65;;
51943;SDS011;37969;53.132;6.370;2023-06-10T04:27:45;14.40;;;8.15;;
51943;SDS011;37969;53.132;6.370;2023-06-10T04:30:11;15.98;;;8.55;;
51943;SDS011;37969;53.132;6.370;2023-06-10T04:32:38;15.40;;;8.00;;
51943;SDS011;37969;53.132;6.370;2023-06-10T04:35:04;19.65;;;7.65;;
51943;SDS011;37969;53.132;6.370;2023-06-10T04:37:30;15.25;;;7.50;;
51943;SDS011;37969;53.132;6.370;2023-06-10T04:39:57;14.73;;;7.45;;
51943;SDS011;37969;53.132;6.370;2023-06-10T04:42:24;14.43;;;7.20;;
51943;SDS011;37969;53.132;6.370;2023-06-10T04:44:50;13.45;;;7.40;;
51943;SDS011;37969;53.132;6.370;2023-06-10T04:47:16;13.30;;;7.55;;
51943;SDS011;37969;53.132;6.370;2023-06-10T04:49:42;14.45;;;7.90;;
51943;SDS011;37969;53.132;6.370;2023-06-10T04:52:09;17.67;;;7.55;;
51943;SDS011;37969;53.132;6.370;2023-06-10T04:54:36;16.45;;;7.32;;
51943;SDS011;37969;53.132;6.370;2023-06-10T04:57:02;17.55;;;6.78;;
51943;SDS011;37969;53.132;6.370;2023-06-10T04:59:28;16.58;;;6.88;;
51943;SDS011;37969;53.132;6.370;2023-06-10T05:01:55;14.85;;;7.15;;
51943;SDS011;37969;53.132;6.370;2023-06-10T05:04:21;14.95;;;7.40;;
51943;SDS011;37969;53.132;6.370;2023-06-10T05:06:48;16.58;;;7.20;;
51943;SDS011;37969;53.132;6.370;2023-06-10T05:09:14;15.45;;;7.05;;
51943;SDS011;37969;53.132;6.370;2023-06-10T05:11:41;13.45;;;7.43;;
51943;SDS011;37969;53.132;6.370;2023-06-10T05:14:07;18.50;;;8.07;;
51943;SDS011;37969;53.132;6.370;2023-06-10T05:16:33;18.23;;;6.95;;
51943;SDS011;37969;53.132;6.370;2023-06-10T05:18:59;14.02;;;6.80;;
51943;SDS011;37969;53.132;6.370;2023-06-10T05:21:25;13.70;;;7.35;;
51943;SDS011;37969;53.132;6.370;2023-06-10T05:23:52;14.52;;;7.68;;
51943;SDS011;37969;53.132;6.370;2023-06-10T05:26:18;13.75;;;7.55;;
51943;SDS011;37969;53.132;6.370;2023-06-10T05:28:45;15.45;;;7.45;;
51943;SDS011;37969;53.132;6.370;2023-06-10T05:31:11;12.77;;;6.65;;
51943;SDS011;37969;53.132;6.370;2023-06-10T05:33:37;13.30;;;6.78;;
51943;SDS011;37969;53.132;6.370;2023-06-10T05:36:03;17.25;;;7.43;;
51943;SDS011;37969;53.132;6.370;2023-06-10T05:38:29;13.13;;;7.35;;
51943;SDS011;37969;53.132;6.370;2023-06-10T05:40:55;14.13;;;7.00;;
51943;SDS011;37969;53.132;6.370;2023-06-10T05:43:24;16.30;;;7.70;;
51943;SDS011;37969;53.132;6.370;2023-06-10T05:45:50;13.38;;;6.82;;
51943;SDS011;37969;53.132;6.370;2023-06-10T05:48:16;16.45;;;7.72;;
51943;SDS011;37969;53.132;6.370;2023-06-10T05:50:42;14.20;;;7.18;;
51943;SDS011;37969;53.132;6.370;2023-06-10T05:53:13;13.45;;;7.22;;
51943;SDS011;37969;53.132;6.370;2023-06-10T05:55:42;12.65;;;6.07;;
51943;SDS011;37969;53.132;6.370;2023-06-10T05:58:08;13.10;;;6.57;;
51943;SDS011;37969;53.132;6.370;2023-06-10T06:00:35;12.70;;;7.13;;
51943;SDS011;37969;53.132;6.370;2023-06-10T06:03:01;14.68;;;7.75;;
51943;SDS011;37969;53.132;6.370;2023-06-10T06:05:27;17.23;;;7.35;;
51943;SDS011;37969;53.132;6.370;2023-06-10T06:07:59;16.23;;;6.90;;
51943;SDS011;37969;53.132;6.370;2023-06-10T06:10:26;16.27;;;6.68;;
51943;SDS011;37969;53.132;6.370;2023-06-10T06:12:52;14.05;;;6.43;;
51943;SDS011;37969;53.132;6.370;2023-06-10T06:15:18;13.70;;;6.78;;
51943;SDS011;37969;53.132;6.370;2023-06-10T06:17:44;12.23;;;5.97;;
51943;SDS011;37969;53.132;6.370;2023-06-10T06:20:11;13.73;;;6.60;;
51943;SDS011;37969;53.132;6.370;2023-06-10T06:22:37;15.32;;;6.82;;
51943;SDS011;37969;53.132;6.370;2023-06-10T06:25:03;13.85;;;6.95;;
51943;SDS011;37969;53.132;6.370;2023-06-10T06:27:30;12.85;;;6.57;;
51943;SDS011;37969;53.132;6.370;2023-06-10T06:29:56;12.85;;;6.90;;
51943;SDS011;37969;53.132;6.370;2023-06-10T06:32:23;14.70;;;6.55;;
51943;SDS011;37969;53.132;6.370;2023-06-10T06:34:51;13.98;;;6.38;;
51943;SDS011;37969;53.132;6.370;2023-06-10T06:37:21;11.30;;;6.10;;
51943;SDS011;37969;53.132;6.370;2023-06-10T06:39:49;14.90;;;7.05;;
51943;SDS011;37969;53.132;6.370;2023-06-10T06:42:16;14.18;;;6.53;;
51943;SDS011;37969;53.132;6.370;2023-06-10T06:44:42;13.63;;;6.97;;
51943;SDS011;37969;53.132;6.370;2023-06-10T06:47:08;12.90;;;6.85;;
51943;SDS011;37969;53.132;6.370;2023-06-10T06:49:35;15.70;;;6.88;;
51943;SDS011;37969;53.132;6.370;2023-06-10T06:52:01;16.17;;;7.05;;
51943;SDS011;37969;53.132;6.370;2023-06-10T06:54:27;13.18;;;7.10;;
51943;SDS011;37969;53.132;6.370;2023-06-10T06:56:54;13.68;;;7.00;;
51943;SDS011;37969;53.132;6.370;2023-06-10T06:59:20;12.27;;;6.63;;
51943;SDS011;37969;53.132;6.370;2023-06-10T07:01:47;14.95;;;7.30;;
51943;SDS011;37969;53.132;6.370;2023-06-10T07:04:14;15.15;;;7.82;;
51943;SDS011;37969;53.132;6.370;2023-06-10T07:06:41;13.32;;;7.40;;
51943;SDS011;37969;53.132;6.370;2023-06-10T07:09:07;9.85;;;6.60;;
51943;SDS011;37969;53.132;6.370;2023-06-10T07:11:34;14.05;;;7.00;;
51943;SDS011;37969;53.132;6.370;2023-06-10T07:14:00;11.85;;;6.35;;
51943;SDS011;37969;53.132;6.370;2023-06-10T07:16:26;10.90;;;5.88;;
51943;SDS011;37969;53.132;6.370;2023-06-10T07:18:53;10.70;;;5.68;;
51943;SDS011;37969;53.132;6.370;2023-06-10T07:21:19;7.38;;;5.43;;
51943;SDS011;37969;53.132;6.370;2023-06-10T07:23:45;9.65;;;5.55;;
51943;SDS011;37969;53.132;6.370;2023-06-10T07:26:11;10.70;;;5.88;;
51943;SDS011;37969;53.132;6.370;2023-06-10T07:28:39;11.32;;;5.90;;
51943;SDS011;37969;53.132;6.370;2023-06-10T07:31:06;10.50;;;6.00;;
51943;SDS011;37969;53.132;6.370;2023-06-10T07:33:32;13.10;;;6.43;;
51943;SDS011;37969;53.132;6.370;2023-06-10T07:35:59;15.23;;;6.07;;
51943;SDS011;37969;53.132;6.370;2023-06-10T07:38:25;10.15;;;5.22;;
51943;SDS011;37969;53.132;6.370;2023-06-10T07:40:51;8.25;;;5.00;;
51943;SDS011;37969;53.132;6.370;2023-06-10T07:43:18;10.80;;;5.68;;
51943;SDS011;37969;53.132;6.370;2023-06-10T07:45:44;9.18;;;4.93;;
51943;SDS011;37969;53.132;6.370;2023-06-10T07:48:11;8.98;;;5.28;;
51943;SDS011;37969;53.132;6.370;2023-06-10T07:50:37;8.00;;;5.10;;
51943;SDS011;37969;53.132;6.370;2023-06-10T07:53:03;10.00;;;5.40;;
51943;SDS011;37969;53.132;6.370;2023-06-10T07:55:29;10.30;;;5.60;;
51943;SDS011;37969;53.132;6.370;2023-06-10T07:57:55;11.63;;;5.45;;
51943;SDS011;37969;53.132;6.370;2023-06-10T08:00:22;9.40;;;5.60;;
51943;SDS011;37969;53.132;6.370;2023-06-10T08:02:48;16.65;;;5.43;;
51943;SDS011;37969;53.132;6.370;2023-06-10T08:05:15;11.20;;;5.30;;
51943;SDS011;37969;53.132;6.370;2023-06-10T08:07:42;9.73;;;4.70;;
51943;SDS011;37969;53.132;6.370;2023-06-10T08:10:08;10.23;;;4.97;;
51943;SDS011;37969;53.132;6.370;2023-06-10T08:12:35;6.60;;;4.85;;
51943;SDS011;37969;53.132;6.370;2023-06-10T08:15:02;10.52;;;4.78;;
51943;SDS011;37969;53.132;6.370;2023-06-10T08:17:30;8.68;;;5.32;;
51943;SDS011;37969;53.132;6.370;2023-06-10T08:19:56;7.38;;;4.60;;
51943;SDS011;37969;53.132;6.370;2023-06-10T08:22:22;9.60;;;4.93;;
51943;SDS011;37969;53.132;6.370;2023-06-10T08:24:48;9.32;;;4.88;;
51943;SDS011;37969;53.132;6.370;2023-06-10T08:27:14;10.20;;;5.25;;
51943;SDS011;37969;53.132;6.370;2023-06-10T08:29:41;7.78;;;5.00;;
51943;SDS011;37969;53.132;6.370;2023-06-10T08:32:07;7.32;;;4.68;;
51943;SDS011;37969;53.132;6.370;2023-06-10T08:34:33;10.40;;;5.00;;
51943;SDS011;37969;53.132;6.370;2023-06-10T08:37:01;7.85;;;5.28;;
51943;SDS011;37969;53.132;6.370;2023-06-10T08:39:27;6.38;;;4.97;;
51943;SDS011;37969;53.132;6.370;2023-06-10T08:44:27;9.25;;;4.28;;
51943;SDS011;37969;53.132;6.370;2023-06-10T08:46:55;11.23;;;4.68;;
51943;SDS011;37969;53.132;6.370;2023-06-10T08:49:22;8.60;;;5.30;;
51943;SDS011;37969;53.132;6.370;2023-06-10T08:51:50;10.35;;;4.90;;
51943;SDS011;37969;53.132;6.370;2023-06-10T08:54:18;15.35;;;4.78;;
51943;SDS011;37969;53.132;6.370;2023-06-10T08:56:47;7.63;;;4.80;;
51943;SDS011;37969;53.132;6.370;2023-06-10T08:59:16;8.93;;;4.70;;
51943;SDS011;37969;53.132;6.370;2023-06-10T09:01:43;8.85;;;4.45;;
51943;SDS011;37969;53.132;6.370;2023-06-10T09:04:09;7.80;;;4.30;;
51943;SDS011;37969;53.132;6.370;2023-06-10T09:06:35;6.93;;;4.43;;
51943;SDS011;37969;53.132;6.370;2023-06-10T09:09:03;7.60;;;4.60;;
51943;SDS011;37969;53.132;6.370;2023-06-10T09:11:31;9.77;;;4.50;;
51943;SDS011;37969;53.132;6.370;2023-06-10T09:13:57;6.72;;;4.68;;
51943;SDS011;37969;53.132;6.370;2023-06-10T09:16:25;11.02;;;4.32;;
51943;SDS011;37969;53.132;6.370;2023-06-10T09:18:51;11.60;;;4.57;;
51943;SDS011;37969;53.132;6.370;2023-06-10T09:21:22;8.52;;;4.35;;
51943;SDS011;37969;53.132;6.370;2023-06-10T09:23:48;8.65;;;4.88;;
51943;SDS011;37969;53.132;6.370;2023-06-10T09:26:14;9.13;;;4.50;;
51943;SDS011;37969;53.132;6.370;2023-06-10T09:28:44;7.90;;;4.70;;
51943;SDS011;37969;53.132;6.370;2023-06-10T09:31:11;10.43;;;4.10;;
51943;SDS011;37969;53.132;6.370;2023-06-10T09:33:38;8.60;;;4.40;;
51943;SDS011;37969;53.132;6.370;2023-06-10T09:36:05;6.22;;;4.40;;
51943;SDS011;37969;53.132;6.370;2023-06-10T09:38:32;11.05;;;4.53;;
51943;SDS011;37969;53.132;6.370;2023-06-10T09:40:59;8.63;;;4.07;;
51943;SDS011;37969;53.132;6.370;2023-06-10T09:43:39;6.85;;;3.70;;
51943;SDS011;37969;53.132;6.370;2023-06-10T09:46:05;7.95;;;3.83;;
51943;SDS011;37969;53.132;6.370;2023-06-10T09:48:34;8.50;;;4.70;;
51943;SDS011;37969;53.132;6.370;2023-06-10T09:51:01;9.07;;;4.57;;
51943;SDS011;37969;53.132;6.370;2023-06-10T09:53:27;8.63;;;4.35;;
51943;SDS011;37969;53.132;6.370;2023-06-10T09:55:56;8.05;;;4.40;;
51943;SDS011;37969;53.132;6.370;2023-06-10T09:58:36;7.55;;;4.80;;
51943;SDS011;37969;53.132;6.370;2023-06-10T10:01:06;7.63;;;4.05;;
51943;SDS011;37969;53.132;6.370;2023-06-10T10:03:32;10.45;;;3.92;;
51943;SDS011;37969;53.132;6.370;2023-06-10T10:05:59;6.97;;;4.13;;
51943;SDS011;37969;53.132;6.370;2023-06-10T10:08:25;5.80;;;3.72;;
51943;SDS011;37969;53.132;6.370;2023-06-10T10:10:52;11.10;;;4.18;;
51943;SDS011;37969;53.132;6.370;2023-06-10T10:13:18;9.85;;;4.00;;
51943;SDS011;37969;53.132;6.370;2023-06-10T10:15:44;6.43;;;3.55;;
51943;SDS011;37969;53.132;6.370;2023-06-10T10:18:11;9.35;;;4.00;;
51943;SDS011;37969;53.132;6.370;2023-06-10T10:20:46;8.13;;;4.10;;
51943;SDS011;37969;53.132;6.370;2023-06-10T10:23:12;10.20;;;4.20;;
51943;SDS011;37969;53.132;6.370;2023-06-10T10:25:40;8.38;;;3.97;;
51943;SDS011;37969;53.132;6.370;2023-06-10T10:28:08;4.93;;;3.80;;
51943;SDS011;37969;53.132;6.370;2023-06-10T10:30:43;10.52;;;4.18;;
51943;SDS011;37969;53.132;6.370;2023-06-10T10:35:37;4.65;;;3.50;;
51943;SDS011;37969;53.132;6.370;2023-06-10T10:38:04;5.75;;;3.17;;
51943;SDS011;37969;53.132;6.370;2023-06-10T10:40:30;9.65;;;4.00;;
51943;SDS011;37969;53.132;6.370;2023-06-10T10:42:58;10.23;;;3.65;;
51943;SDS011;37969;53.132;6.370;2023-06-10T10:45:27;8.32;;;3.45;;
51943;SDS011;37969;53.132;6.370;2023-06-10T10:47:53;8.35;;;4.03;;
51943;SDS011;37969;53.132;6.370;2023-06-10T10:50:21;4.75;;;3.05;;
51943;SDS011;37969;53.132;6.370;2023-06-10T10:53:01;7.25;;;3.92;;
51943;SDS011;37969;53.132;6.370;2023-06-10T10:55:28;9.57;;;3.50;;
51943;SDS011;37969;53.132;6.370;2023-06-10T10:57:55;6.10;;;3.35;;
51943;SDS011;37969;53.132;6.370;2023-06-10T11:00:28;6.22;;;3.35;;
51943;SDS011;37969;53.132;6.370;2023-06-10T11:05:32;6.15;;;2.80;;
51943;SDS011;37969;53.132;6.370;2023-06-10T11:08:01;8.07;;;3.20;;
51943;SDS011;37969;53.132;6.370;2023-06-10T11:10:29;6.93;;;3.13;;
51943;SDS011;37969;53.132;6.370;2023-06-10T11:12:56;7.32;;;3.05;;
51943;SDS011;37969;53.132;6.370;2023-06-10T11:15:23;5.38;;;2.97;;
51943;SDS011;37969;53.132;6.370;2023-06-10T11:20:44;7.50;;;2.90;;
51943;SDS011;37969;53.132;6.370;2023-06-10T11:23:11;6.85;;;3.50;;
51943;SDS011;37969;53.132;6.370;2023-06-10T11:28:17;4.40;;;3.05;;
51943;SDS011;37969;53.132;6.370;2023-06-10T11:30:44;8.95;;;3.30;;
51943;SDS011;37969;53.132;6.370;2023-06-10T11:33:14;4.13;;;2.95;;
51943;SDS011;37969;53.132;6.370;2023-06-10T11:35:40;4.20;;;3.35;;
51943;SDS011;37969;53.132;6.370;2023-06-10T11:38:07;5.43;;;3.00;;
51943;SDS011;37969;53.132;6.370;2023-06-10T11:40:33;5.47;;;3.13;;
51943;SDS011;37969;53.132;6.370;2023-06-10T11:43:01;6.53;;;2.95;;
51943;SDS011;37969;53.132;6.370;2023-06-10T11:45:28;10.23;;;3.10;;
51943;SDS011;37969;53.132;6.370;2023-06-10T11:47:55;6.07;;;3.25;;
51943;SDS011;37969;53.132;6.370;2023-06-10T11:50:29;5.32;;;3.22;;
51943;SDS011;37969;53.132;6.370;2023-06-10T11:52:55;5.55;;;2.97;;
51943;SDS011;37969;53.132;6.370;2023-06-10T11:55:23;5.13;;;3.50;;
51943;SDS011;37969;53.132;6.370;2023-06-10T11:57:50;5.00;;;3.35;;
51943;SDS011;37969;53.132;6.370;2023-06-10T12:00:22;6.60;;;3.47;;
51943;SDS011;37969;53.132;6.370;2023-06-10T12:02:55;4.90;;;3.30;;
51943;SDS011;37969;53.132;6.370;2023-06-10T12:05:22;5.68;;;3.30;;
51943;SDS011;37969;53.132;6.370;2023-06-10T12:07:48;5.53;;;3.22;;
51943;SDS011;37969;53.132;6.370;2023-06-10T12:10:14;9.15;;;3.40;;
51943;SDS011;37969;53.132;6.370;2023-06-10T12:12:41;4.50;;;3.05;;
51943;SDS011;37969;53.132;6.370;2023-06-10T12:15:08;7.20;;;3.33;;
51943;SDS011;37969;53.132;6.370;2023-06-10T12:20:03;4.63;;;3.55;;
51943;SDS011;37969;53.132;6.370;2023-06-10T12:22:39;6.20;;;3.70;;
51943;SDS011;37969;53.132;6.370;2023-06-10T12:25:06;7.18;;;3.25;;
51943;SDS011;37969;53.132;6.370;2023-06-10T12:27:33;4.63;;;3.35;;
51943;SDS011;37969;53.132;6.370;2023-06-10T12:30:00;7.60;;;3.42;;
51943;SDS011;37969;53.132;6.370;2023-06-10T12:35:04;6.43;;;3.15;;
51943;SDS011;37969;53.132;6.370;2023-06-10T12:37:31;6.82;;;3.63;;
51943;SDS011;37969;53.132;6.370;2023-06-10T12:40:00;6.10;;;3.10;;
51943;SDS011;37969;53.132;6.370;2023-06-10T12:42:27;5.45;;;2.88;;
51943;SDS011;37969;53.132;6.370;2023-06-10T12:44:54;7.13;;;2.97;;
51943;SDS011;37969;53.132;6.370;2023-06-10T12:47:28;3.45;;;2.75;;
51943;SDS011;37969;53.132;6.370;2023-06-10T12:49:57;8.88;;;3.33;;
51943;SDS011;37969;53.132;6.370;2023-06-10T12:52:24;5.15;;;3.20;;
51943;SDS011;37969;53.132;6.370;2023-06-10T12:54:50;4.97;;;3.10;;
51943;SDS011;37969;53.132;6.370;2023-06-10T12:57:17;5.20;;;3.03;;
51943;SDS011;37969;53.132;6.370;2023-06-10T12:59:43;3.72;;;3.00;;
51943;SDS011;37969;53.132;6.370;2023-06-10T13:02:15;5.10;;;3.00;;
51943;SDS011;37969;53.132;6.370;2023-06-10T13:04:45;4.70;;;3.20;;
51943;SDS011;37969;53.132;6.370;2023-06-10T13:07:11;4.05;;;2.85;;
51943;SDS011;37969;53.132;6.370;2023-06-10T13:09:37;4.78;;;3.05;;
51943;SDS011;37969;53.132;6.370;2023-06-10T13:12:04;6.03;;;3.20;;
51943;SDS011;37969;53.132;6.370;2023-06-10T13:14:31;4.60;;;3.20;;
51943;SDS011;37969;53.132;6.370;2023-06-10T13:16:57;4.07;;;3.22;;
51943;SDS011;37969;53.132;6.370;2023-06-10T13:19:23;5.80;;;3.13;;
51943;SDS011;37969;53.132;6.370;2023-06-10T13:21:49;5.82;;;3.13;;
51943;SDS011;37969;53.132;6.370;2023-06-10T13:24:16;6.20;;;3.28;;
51943;SDS011;37969;53.132;6.370;2023-06-10T13:26:42;5.15;;;3.22;;
51943;SDS011;37969;53.132;6.370;2023-06-10T13:29:08;4.22;;;3.40;;
51943;SDS011;37969;53.132;6.370;2023-06-10T13:31:39;10.60;;;3.42;;
51943;SDS011;37969;53.132;6.370;2023-06-10T13:34:05;6.13;;;3.40;;
51943;SDS011;37969;53.132;6.370;2023-06-10T13:36:32;4.22;;;3.22;;
51943;SDS011;37969;53.132;6.370;2023-06-10T13:38:58;7.30;;;3.53;;
51943;SDS011;37969;53.132;6.370;2023-06-10T13:41:25;8.30;;;4.07;;
51943;SDS011;37969;53.132;6.370;2023-06-10T13:43:54;9.98;;;3.90;;
51943;SDS011;37969;53.132;6.370;2023-06-10T13:46:20;7.20;;;3.15;;
51943;SDS011;37969;53.132;6.370;2023-06-10T13:48:47;6.40;;;3.85;;
51943;SDS011;37969;53.132;6.370;2023-06-10T13:51:13;4.63;;;3.30;;
51943;SDS011;37969;53.132;6.370;2023-06-10T13:53:40;6.88;;;3.97;;
51943;SDS011;37969;53.132;6.370;2023-06-10T13:56:06;8.88;;;4.07;;
51943;SDS011;37969;53.132;6.370;2023-06-10T13:58:32;8.13;;;3.38;;
51943;SDS011;37969;53.132;6.370;2023-06-10T14:01:04;4.30;;;3.20;;
51943;SDS011;37969;53.132;6.370;2023-06-10T14:03:30;7.35;;;3.35;;
51943;SDS011;37969;53.132;6.370;2023-06-10T14:05:56;6.15;;;3.70;;
51943;SDS011;37969;53.132;6.370;2023-06-10T14:08:23;10.20;;;3.45;;
51943;SDS011;37969;53.132;6.370;2023-06-10T14:10:49;6.28;;;3.50;;
51943;SDS011;37969;53.132;6.370;2023-06-10T14:13:17;6.95;;;3.53;;
51943;SDS011;37969;53.132;6.370;2023-06-10T14:15:43;7.72;;;2.78;;
51943;SDS011;37969;53.132;6.370;2023-06-10T14:18:09;4.50;;;2.80;;
51943;SDS011;37969;53.132;6.370;2023-06-10T14:20:35;4.63;;;2.72;;
51943;SDS011;37969;53.132;6.370;2023-06-10T14:23:02;5.32;;;2.60;;
51943;SDS011;37969;53.132;6.370;2023-06-10T14:25:28;2.60;;;2.25;;
51943;SDS011;37969;53.132;6.370;2023-06-10T14:27:54;3.50;;;2.70;;
51943;SDS011;37969;53.132;6.370;2023-06-10T14:30:20;4.75;;;2.88;;
51943;SDS011;37969;53.132;6.370;2023-06-10T14:32:46;5.18;;;2.30;;
51943;SDS011;37969;53.132;6.370;2023-06-10T14:35:22;4.40;;;2.53;;
51943;SDS011;37969;53.132;6.370;2023-06-10T14:37:48;4.95;;;2.35;;
51943;SDS011;37969;53.132;6.370;2023-06-10T14:40:14;3.85;;;2.70;;
51943;SDS011;37969;53.132;6.370;2023-06-10T14:42:41;2.97;;;2.50;;
51943;SDS011;37969;53.132;6.370;2023-06-10T14:45:07;4.35;;;2.72;;
51943;SDS011;37969;53.132;6.370;2023-06-10T14:47:35;3.75;;;2.65;;
51943;SDS011;37969;53.132;6.370;2023-06-10T14:50:01;5.15;;;2.80;;
51943;SDS011;37969;53.132;6.370;2023-06-10T14:52:27;4.93;;;2.45;;
51943;SDS011;37969;53.132;6.370;2023-06-10T14:54:53;4.28;;;2.83;;
51943;SDS011;37969;53.132;6.370;2023-06-10T14:57:19;3.25;;;2.60;;
51943;SDS011;37969;53.132;6.370;2023-06-10T14:59:46;6.88;;;2.40;;